sensor_id;sensor_type;location;lat;lon;timestamp;P1;durP1;ratioP1;P2;durP2;ratioP2
19519;SDS011;9904;52.246;20.898;2023-12-22T00:01:32;11.37;;;2.60;;
19519;SDS011;9904;52.246;20.898;2023-12-22T00:03:59;14.13;;;2.47;;
19519;SDS011;9904;52.246;20.898;2023-12-22T00:06:26;12.07;;;2.27;;
19519;SDS011;9904;52.246;20.898;2023-12-22T00:08:52;10.30;;;1.93;;
19519;SDS011;9904;52.246;20.898;2023-12-22T00:11:19;12.97;;;2.77;;
19519;SDS011;9904;52.246;20.898;2023-12-22T00:13:46;8.67;;;2.00;;
19519;SDS011;9904;52.246;20.898;2023-12-22T00:16:13;9.27;;;2.27;;
19519;SDS011;9904;52.246;20.898;2023-12-22T00:18:39;14.93;;;2.20;;
19519;SDS011;9904;52.246;20.898;2023-12-22T00:21:12;15.07;;;2.30;;
19519;SDS011;9904;52.246;20.898;2023-12-22T00:23:39;12.70;;;1.87;;
19519;SDS011;9904;52.246;20.898;2023-12-22T00:26:05;14.93;;;2.37;;
19519;SDS011;9904;52.246;20.898;2023-12-22T00:28:32;14.37;;;2.00;;
19519;SDS011;9904;52.246;20.898;2023-12-22T00:30:58;11.00;;;2.20;;
19519;SDS011;9904;52.246;20.898;2023-12-22T00:33:25;12.07;;;1.73;;
19519;SDS011;9904;52.246;20.898;2023-12-22T00:35:52;10.57;;;1.90;;
19519;SDS011;9904;52.246;20.898;2023-12-22T00:38:19;9.40;;;1.97;;
19519;SDS011;9904;52.246;20.898;2023-12-22T00:40:46;12.90;;;2.33;;
19519;SDS011;9904;52.246;20.898;2023-12-22T00:43:12;16.23;;;2.30;;
19519;SDS011;9904;52.246;20.898;2023-12-22T00:45:39;11.83;;;2.30;;
19519;SDS011;9904;52.246;20.898;2023-12-22T00:48:05;10.93;;;2.33;;
19519;SDS011;9904;52.246;20.898;2023-12-22T00:50:32;16.13;;;2.33;;
19519;SDS011;9904;52.246;20.898;2023-12-22T00:52:59;13.77;;;2.67;;
19519;SDS011;9904;52.246;20.898;2023-12-22T00:55:25;19.37;;;3.07;;
19519;SDS011;9904;52.246;20.898;2023-12-22T00:57:52;15.23;;;2.30;;
19519;SDS011;9904;52.246;20.898;2023-12-22T01:00:18;11.40;;;1.93;;
19519;SDS011;9904;52.246;20.898;2023-12-22T01:02:45;14.53;;;2.10;;
19519;SDS011;9904;52.246;20.898;2023-12-22T01:05:11;16.17;;;2.80;;
19519;SDS011;9904;52.246;20.898;2023-12-22T01:07:38;15.60;;;3.67;;
19519;SDS011;9904;52.246;20.898;2023-12-22T01:10:05;12.13;;;2.10;;
19519;SDS011;9904;52.246;20.898;2023-12-22T01:12:32;7.67;;;2.10;;
19519;SDS011;9904;52.246;20.898;2023-12-22T01:14:59;14.67;;;2.07;;
19519;SDS011;9904;52.246;20.898;2023-12-22T01:17:25;13.37;;;2.57;;
19519;SDS011;9904;52.246;20.898;2023-12-22T01:19:52;21.17;;;2.80;;
19519;SDS011;9904;52.246;20.898;2023-12-22T01:22:20;8.13;;;1.97;;
19519;SDS011;9904;52.246;20.898;2023-12-22T01:24:46;11.40;;;1.87;;
19519;SDS011;9904;52.246;20.898;2023-12-22T01:27:13;14.80;;;2.97;;
19519;SDS011;9904;52.246;20.898;2023-12-22T01:29:40;17.13;;;3.07;;
19519;SDS011;9904;52.246;20.898;2023-12-22T01:32:06;11.53;;;2.50;;
19519;SDS011;9904;52.246;20.898;2023-12-22T01:34:33;14.00;;;2.60;;
19519;SDS011;9904;52.246;20.898;2023-12-22T01:37:00;16.30;;;2.37;;
19519;SDS011;9904;52.246;20.898;2023-12-22T01:39:26;19.80;;;3.17;;
19519;SDS011;9904;52.246;20.898;2023-12-22T01:41:53;12.87;;;2.33;;
19519;SDS011;9904;52.246;20.898;2023-12-22T01:44:20;24.03;;;3.50;;
19519;SDS011;9904;52.246;20.898;2023-12-22T01:46:46;8.50;;;2.57;;
19519;SDS011;9904;52.246;20.898;2023-12-22T01:49:13;22.53;;;2.70;;
19519;SDS011;9904;52.246;20.898;2023-12-22T01:51:41;12.50;;;2.37;;
19519;SDS011;9904;52.246;20.898;2023-12-22T01:54:09;13.20;;;2.50;;
19519;SDS011;9904;52.246;20.898;2023-12-22T01:56:37;20.63;;;3.73;;
19519;SDS011;9904;52.246;20.898;2023-12-22T01:59:04;13.70;;;2.63;;
19519;SDS011;9904;52.246;20.898;2023-12-22T02:01:30;18.10;;;3.97;;
19519;SDS011;9904;52.246;20.898;2023-12-22T02:03:58;15.57;;;2.93;;
19519;SDS011;9904;52.246;20.898;2023-12-22T02:06:26;14.63;;;2.60;;
19519;SDS011;9904;52.246;20.898;2023-12-22T02:08:53;20.33;;;2.50;;
19519;SDS011;9904;52.246;20.898;2023-12-22T02:11:20;19.80;;;2.70;;
19519;SDS011;9904;52.246;20.898;2023-12-22T02:13:46;17.10;;;3.00;;
19519;SDS011;9904;52.246;20.898;2023-12-22T02:18:52;17.93;;;2.80;;
19519;SDS011;9904;52.246;20.898;2023-12-22T02:21:22;12.80;;;2.27;;
19519;SDS011;9904;52.246;20.898;2023-12-22T02:23:48;18.60;;;2.70;;
19519;SDS011;9904;52.246;20.898;2023-12-22T02:26:17;12.50;;;2.80;;
19519;SDS011;9904;52.246;20.898;2023-12-22T02:29:00;14.57;;;2.87;;
19519;SDS011;9904;52.246;20.898;2023-12-22T02:31:36;15.03;;;3.57;;
19519;SDS011;9904;52.246;20.898;2023-12-22T02:34:12;13.27;;;2.40;;
19519;SDS011;9904;52.246;20.898;2023-12-22T02:36:43;19.43;;;3.00;;
19519;SDS011;9904;52.246;20.898;2023-12-22T02:39:12;18.03;;;3.17;;
19519;SDS011;9904;52.246;20.898;2023-12-22T02:41:40;12.23;;;2.53;;
19519;SDS011;9904;52.246;20.898;2023-12-22T02:44:07;15.17;;;3.03;;
19519;SDS011;9904;52.246;20.898;2023-12-22T02:46:34;18.37;;;2.67;;
19519;SDS011;9904;52.246;20.898;2023-12-22T02:49:01;18.53;;;2.23;;
19519;SDS011;9904;52.246;20.898;2023-12-22T02:51:28;14.37;;;2.73;;
19519;SDS011;9904;52.246;20.898;2023-12-22T02:53:54;18.97;;;2.90;;
19519;SDS011;9904;52.246;20.898;2023-12-22T02:56:21;18.13;;;2.93;;
19519;SDS011;9904;52.246;20.898;2023-12-22T02:58:47;16.47;;;2.53;;
19519;SDS011;9904;52.246;20.898;2023-12-22T03:01:14;20.83;;;3.30;;
19519;SDS011;9904;52.246;20.898;2023-12-22T03:03:41;17.50;;;2.27;;
19519;SDS011;9904;52.246;20.898;2023-12-22T03:06:07;18.00;;;2.77;;
19519;SDS011;9904;52.246;20.898;2023-12-22T03:08:34;14.57;;;3.33;;
19519;SDS011;9904;52.246;20.898;2023-12-22T03:11:01;13.67;;;2.77;;
19519;SDS011;9904;52.246;20.898;2023-12-22T03:13:27;11.70;;;2.57;;
19519;SDS011;9904;52.246;20.898;2023-12-22T03:15:54;7.10;;;2.00;;
19519;SDS011;9904;52.246;20.898;2023-12-22T03:18:21;14.20;;;2.77;;
19519;SDS011;9904;52.246;20.898;2023-12-22T03:20:48;22.43;;;3.03;;
19519;SDS011;9904;52.246;20.898;2023-12-22T03:23:14;14.47;;;2.90;;
19519;SDS011;9904;52.246;20.898;2023-12-22T03:25:41;17.60;;;3.00;;
19519;SDS011;9904;52.246;20.898;2023-12-22T03:28:08;20.53;;;3.03;;
19519;SDS011;9904;52.246;20.898;2023-12-22T03:30:34;14.03;;;3.00;;
19519;SDS011;9904;52.246;20.898;2023-12-22T03:33:02;15.23;;;2.67;;
19519;SDS011;9904;52.246;20.898;2023-12-22T03:35:29;22.93;;;3.00;;
19519;SDS011;9904;52.246;20.898;2023-12-22T03:37:55;19.00;;;3.00;;
19519;SDS011;9904;52.246;20.898;2023-12-22T03:40:22;15.50;;;3.33;;
19519;SDS011;9904;52.246;20.898;2023-12-22T03:42:49;10.93;;;2.53;;
19519;SDS011;9904;52.246;20.898;2023-12-22T03:45:15;18.00;;;3.13;;
19519;SDS011;9904;52.246;20.898;2023-12-22T03:47:42;24.10;;;2.90;;
19519;SDS011;9904;52.246;20.898;2023-12-22T03:50:08;19.20;;;3.10;;
19519;SDS011;9904;52.246;20.898;2023-12-22T03:52:35;16.77;;;2.70;;
19519;SDS011;9904;52.246;20.898;2023-12-22T03:55:02;19.07;;;2.93;;
19519;SDS011;9904;52.246;20.898;2023-12-22T03:57:29;14.50;;;2.93;;
19519;SDS011;9904;52.246;20.898;2023-12-22T03:59:55;15.27;;;3.47;;
19519;SDS011;9904;52.246;20.898;2023-12-22T04:02:22;20.60;;;2.77;;
19519;SDS011;9904;52.246;20.898;2023-12-22T04:04:48;20.00;;;3.40;;
19519;SDS011;9904;52.246;20.898;2023-12-22T04:07:15;11.20;;;2.73;;
19519;SDS011;9904;52.246;20.898;2023-12-22T04:09:42;18.50;;;2.90;;
19519;SDS011;9904;52.246;20.898;2023-12-22T04:12:08;10.90;;;2.50;;
19519;SDS011;9904;52.246;20.898;2023-12-22T04:14:35;11.87;;;2.53;;
19519;SDS011;9904;52.246;20.898;2023-12-22T04:17:01;12.13;;;3.00;;
19519;SDS011;9904;52.246;20.898;2023-12-22T04:19:28;24.43;;;3.43;;
19519;SDS011;9904;52.246;20.898;2023-12-22T04:21:55;13.13;;;3.13;;
19519;SDS011;9904;52.246;20.898;2023-12-22T04:24:21;12.77;;;2.67;;
19519;SDS011;9904;52.246;20.898;2023-12-22T04:26:48;16.20;;;2.60;;
19519;SDS011;9904;52.246;20.898;2023-12-22T04:29:14;14.83;;;2.83;;
19519;SDS011;9904;52.246;20.898;2023-12-22T04:31:41;15.47;;;3.50;;
19519;SDS011;9904;52.246;20.898;2023-12-22T04:34:08;18.87;;;2.80;;
19519;SDS011;9904;52.246;20.898;2023-12-22T04:36:35;15.17;;;2.90;;
19519;SDS011;9904;52.246;20.898;2023-12-22T04:39:02;14.80;;;2.87;;
19519;SDS011;9904;52.246;20.898;2023-12-22T04:41:28;16.53;;;2.97;;
19519;SDS011;9904;52.246;20.898;2023-12-22T04:43:55;16.23;;;2.70;;
19519;SDS011;9904;52.246;20.898;2023-12-22T04:46:22;20.57;;;3.10;;
19519;SDS011;9904;52.246;20.898;2023-12-22T04:48:48;16.50;;;3.67;;
19519;SDS011;9904;52.246;20.898;2023-12-22T04:51:15;20.80;;;2.90;;
19519;SDS011;9904;52.246;20.898;2023-12-22T04:53:41;20.00;;;2.87;;
19519;SDS011;9904;52.246;20.898;2023-12-22T04:56:08;18.47;;;3.40;;
19519;SDS011;9904;52.246;20.898;2023-12-22T04:58:35;15.70;;;3.27;;
19519;SDS011;9904;52.246;20.898;2023-12-22T05:01:01;18.43;;;2.43;;
19519;SDS011;9904;52.246;20.898;2023-12-22T05:03:28;25.17;;;3.30;;
19519;SDS011;9904;52.246;20.898;2023-12-22T05:05:55;9.97;;;2.23;;
19519;SDS011;9904;52.246;20.898;2023-12-22T05:08:21;19.30;;;2.77;;
19519;SDS011;9904;52.246;20.898;2023-12-22T05:10:48;14.47;;;2.70;;
19519;SDS011;9904;52.246;20.898;2023-12-22T05:13:14;13.13;;;2.50;;
19519;SDS011;9904;52.246;20.898;2023-12-22T05:15:41;16.87;;;3.53;;
19519;SDS011;9904;52.246;20.898;2023-12-22T05:18:08;14.80;;;2.73;;
19519;SDS011;9904;52.246;20.898;2023-12-22T05:20:34;13.97;;;2.50;;
19519;SDS011;9904;52.246;20.898;2023-12-22T05:23:01;19.73;;;3.20;;
19519;SDS011;9904;52.246;20.898;2023-12-22T05:25:28;19.90;;;3.07;;
19519;SDS011;9904;52.246;20.898;2023-12-22T05:27:55;14.43;;;2.37;;
19519;SDS011;9904;52.246;20.898;2023-12-22T05:30:21;15.93;;;3.03;;
19519;SDS011;9904;52.246;20.898;2023-12-22T05:32:48;20.33;;;3.30;;
19519;SDS011;9904;52.246;20.898;2023-12-22T05:35:15;10.97;;;3.60;;
19519;SDS011;9904;52.246;20.898;2023-12-22T05:37:41;21.20;;;3.07;;
19519;SDS011;9904;52.246;20.898;2023-12-22T05:40:08;26.30;;;3.53;;
19519;SDS011;9904;52.246;20.898;2023-12-22T05:42:36;26.03;;;3.73;;
19519;SDS011;9904;52.246;20.898;2023-12-22T05:45:03;17.17;;;3.07;;
19519;SDS011;9904;52.246;20.898;2023-12-22T05:47:29;22.03;;;3.30;;
19519;SDS011;9904;52.246;20.898;2023-12-22T05:49:56;23.90;;;3.30;;
19519;SDS011;9904;52.246;20.898;2023-12-22T05:52:23;21.90;;;3.07;;
19519;SDS011;9904;52.246;20.898;2023-12-22T05:54:49;20.60;;;3.13;;
19519;SDS011;9904;52.246;20.898;2023-12-22T05:57:16;20.80;;;3.73;;
19519;SDS011;9904;52.246;20.898;2023-12-22T05:59:43;21.83;;;3.47;;
19519;SDS011;9904;52.246;20.898;2023-12-22T06:02:09;19.97;;;3.37;;
19519;SDS011;9904;52.246;20.898;2023-12-22T06:04:36;19.60;;;3.77;;
19519;SDS011;9904;52.246;20.898;2023-12-22T06:07:03;25.77;;;3.70;;
19519;SDS011;9904;52.246;20.898;2023-12-22T06:09:30;18.73;;;3.10;;
19519;SDS011;9904;52.246;20.898;2023-12-22T06:11:56;24.13;;;3.20;;
19519;SDS011;9904;52.246;20.898;2023-12-22T06:14:24;18.97;;;2.87;;
19519;SDS011;9904;52.246;20.898;2023-12-22T06:16:50;25.27;;;4.90;;
19519;SDS011;9904;52.246;20.898;2023-12-22T06:19:17;21.43;;;2.93;;
19519;SDS011;9904;52.246;20.898;2023-12-22T06:21:44;16.80;;;2.97;;
19519;SDS011;9904;52.246;20.898;2023-12-22T06:24:10;14.20;;;2.67;;
19519;SDS011;9904;52.246;20.898;2023-12-22T06:26:37;20.57;;;3.50;;
19519;SDS011;9904;52.246;20.898;2023-12-22T06:29:04;21.83;;;2.90;;
19519;SDS011;9904;52.246;20.898;2023-12-22T06:31:30;18.27;;;3.87;;
19519;SDS011;9904;52.246;20.898;2023-12-22T06:33:57;18.97;;;3.37;;
19519;SDS011;9904;52.246;20.898;2023-12-22T06:36:29;18.03;;;3.30;;
19519;SDS011;9904;52.246;20.898;2023-12-22T06:38:58;21.20;;;3.37;;
19519;SDS011;9904;52.246;20.898;2023-12-22T06:41:26;17.67;;;2.63;;
19519;SDS011;9904;52.246;20.898;2023-12-22T06:43:55;14.90;;;2.53;;
19519;SDS011;9904;52.246;20.898;2023-12-22T06:46:23;18.47;;;3.43;;
19519;SDS011;9904;52.246;20.898;2023-12-22T06:48:55;14.67;;;2.33;;
19519;SDS011;9904;52.246;20.898;2023-12-22T06:51:24;14.20;;;2.60;;
19519;SDS011;9904;52.246;20.898;2023-12-22T06:53:54;18.87;;;3.07;;
19519;SDS011;9904;52.246;20.898;2023-12-22T06:56:25;17.30;;;2.80;;
19519;SDS011;9904;52.246;20.898;2023-12-22T06:58:54;16.90;;;2.43;;
19519;SDS011;9904;52.246;20.898;2023-12-22T07:01:27;14.93;;;2.37;;
19519;SDS011;9904;52.246;20.898;2023-12-22T07:03:55;20.43;;;2.33;;
19519;SDS011;9904;52.246;20.898;2023-12-22T07:06:22;19.30;;;2.63;;
19519;SDS011;9904;52.246;20.898;2023-12-22T07:11:48;18.30;;;2.57;;
19519;SDS011;9904;52.246;20.898;2023-12-22T07:14:16;8.87;;;2.20;;
19519;SDS011;9904;52.246;20.898;2023-12-22T07:16:43;13.70;;;2.43;;
19519;SDS011;9904;52.246;20.898;2023-12-22T07:19:11;11.73;;;2.43;;
19519;SDS011;9904;52.246;20.898;2023-12-22T07:21:41;17.40;;;2.67;;
19519;SDS011;9904;52.246;20.898;2023-12-22T07:24:12;13.13;;;3.00;;
19519;SDS011;9904;52.246;20.898;2023-12-22T07:26:41;20.57;;;2.70;;
19519;SDS011;9904;52.246;20.898;2023-12-22T07:29:08;17.27;;;3.53;;
19519;SDS011;9904;52.246;20.898;2023-12-22T07:31:35;15.90;;;3.10;;
19519;SDS011;9904;52.246;20.898;2023-12-22T07:34:01;13.87;;;2.60;;
19519;SDS011;9904;52.246;20.898;2023-12-22T07:36:29;13.20;;;2.67;;
19519;SDS011;9904;52.246;20.898;2023-12-22T07:38:55;22.97;;;3.23;;
19519;SDS011;9904;52.246;20.898;2023-12-22T07:41:24;13.40;;;2.50;;
19519;SDS011;9904;52.246;20.898;2023-12-22T07:43:50;19.57;;;2.70;;
19519;SDS011;9904;52.246;20.898;2023-12-22T07:46:17;13.33;;;2.20;;
19519;SDS011;9904;52.246;20.898;2023-12-22T07:48:45;16.07;;;1.90;;
19519;SDS011;9904;52.246;20.898;2023-12-22T07:51:12;14.37;;;2.30;;
19519;SDS011;9904;52.246;20.898;2023-12-22T07:53:39;16.60;;;2.80;;
19519;SDS011;9904;52.246;20.898;2023-12-22T07:56:05;17.60;;;2.47;;
19519;SDS011;9904;52.246;20.898;2023-12-22T07:58:34;16.77;;;3.00;;
19519;SDS011;9904;52.246;20.898;2023-12-22T08:01:01;12.57;;;2.33;;
19519;SDS011;9904;52.246;20.898;2023-12-22T08:03:28;19.33;;;2.87;;
19519;SDS011;9904;52.246;20.898;2023-12-22T08:05:55;16.43;;;2.73;;
19519;SDS011;9904;52.246;20.898;2023-12-22T08:08:22;16.50;;;2.50;;
19519;SDS011;9904;52.246;20.898;2023-12-22T08:10:49;14.83;;;2.83;;
19519;SDS011;9904;52.246;20.898;2023-12-22T08:13:15;16.23;;;3.07;;
19519;SDS011;9904;52.246;20.898;2023-12-22T08:15:44;14.93;;;3.40;;
19519;SDS011;9904;52.246;20.898;2023-12-22T08:18:10;20.27;;;2.77;;
19519;SDS011;9904;52.246;20.898;2023-12-22T08:20:37;18.63;;;2.83;;
19519;SDS011;9904;52.246;20.898;2023-12-22T08:23:08;15.07;;;2.33;;
19519;SDS011;9904;52.246;20.898;2023-12-22T08:25:38;17.10;;;2.80;;
19519;SDS011;9904;52.246;20.898;2023-12-22T08:28:09;18.03;;;3.07;;
19519;SDS011;9904;52.246;20.898;2023-12-22T08:30:36;13.90;;;2.53;;
19519;SDS011;9904;52.246;20.898;2023-12-22T08:33:02;15.10;;;2.53;;
19519;SDS011;9904;52.246;20.898;2023-12-22T08:35:30;16.10;;;2.50;;
19519;SDS011;9904;52.246;20.898;2023-12-22T08:37:57;16.80;;;2.67;;
19519;SDS011;9904;52.246;20.898;2023-12-22T08:40:24;17.03;;;3.10;;
19519;SDS011;9904;52.246;20.898;2023-12-22T08:42:54;13.67;;;2.23;;
19519;SDS011;9904;52.246;20.898;2023-12-22T08:45:26;17.47;;;3.40;;
19519;SDS011;9904;52.246;20.898;2023-12-22T08:47:55;20.73;;;3.50;;
19519;SDS011;9904;52.246;20.898;2023-12-22T08:50:23;15.27;;;2.70;;
19519;SDS011;9904;52.246;20.898;2023-12-22T08:52:50;18.17;;;3.10;;
19519;SDS011;9904;52.246;20.898;2023-12-22T08:55:17;17.20;;;2.70;;
19519;SDS011;9904;52.246;20.898;2023-12-22T08:57:45;15.73;;;2.63;;
19519;SDS011;9904;52.246;20.898;2023-12-22T09:00:24;19.53;;;3.20;;
19519;SDS011;9904;52.246;20.898;2023-12-22T09:02:52;14.07;;;2.60;;
19519;SDS011;9904;52.246;20.898;2023-12-22T09:05:20;11.57;;;2.23;;
19519;SDS011;9904;52.246;20.898;2023-12-22T09:07:48;19.17;;;3.10;;
19519;SDS011;9904;52.246;20.898;2023-12-22T09:10:15;20.27;;;2.73;;
19519;SDS011;9904;52.246;20.898;2023-12-22T09:12:42;14.47;;;2.63;;
19519;SDS011;9904;52.246;20.898;2023-12-22T09:15:08;13.47;;;2.37;;
19519;SDS011;9904;52.246;20.898;2023-12-22T09:17:35;14.83;;;2.47;;
19519;SDS011;9904;52.246;20.898;2023-12-22T09:20:02;17.30;;;3.13;;
19519;SDS011;9904;52.246;20.898;2023-12-22T09:22:29;19.83;;;3.40;;
19519;SDS011;9904;52.246;20.898;2023-12-22T09:24:56;15.20;;;2.37;;
19519;SDS011;9904;52.246;20.898;2023-12-22T09:27:22;17.00;;;2.70;;
19519;SDS011;9904;52.246;20.898;2023-12-22T09:29:49;17.33;;;2.77;;
19519;SDS011;9904;52.246;20.898;2023-12-22T09:32:15;17.87;;;3.23;;
19519;SDS011;9904;52.246;20.898;2023-12-22T09:34:43;19.90;;;3.00;;
19519;SDS011;9904;52.246;20.898;2023-12-22T09:37:09;17.40;;;2.67;;
19519;SDS011;9904;52.246;20.898;2023-12-22T09:39:36;13.70;;;2.43;;
19519;SDS011;9904;52.246;20.898;2023-12-22T09:42:04;11.70;;;2.27;;
19519;SDS011;9904;52.246;20.898;2023-12-22T09:44:31;17.77;;;2.23;;
19519;SDS011;9904;52.246;20.898;2023-12-22T09:47:03;11.37;;;2.57;;
19519;SDS011;9904;52.246;20.898;2023-12-22T09:49:32;19.43;;;2.50;;
19519;SDS011;9904;52.246;20.898;2023-12-22T09:52:01;13.13;;;3.30;;
19519;SDS011;9904;52.246;20.898;2023-12-22T09:54:30;12.20;;;2.10;;
19519;SDS011;9904;52.246;20.898;2023-12-22T09:56:59;9.37;;;2.20;;
19519;SDS011;9904;52.246;20.898;2023-12-22T09:59:44;11.63;;;2.67;;
19519;SDS011;9904;52.246;20.898;2023-12-22T10:02:12;7.87;;;2.43;;
19519;SDS011;9904;52.246;20.898;2023-12-22T10:04:39;16.70;;;2.83;;
19519;SDS011;9904;52.246;20.898;2023-12-22T10:07:06;12.37;;;2.30;;
19519;SDS011;9904;52.246;20.898;2023-12-22T10:09:35;7.67;;;1.67;;
19519;SDS011;9904;52.246;20.898;2023-12-22T10:12:03;8.30;;;1.27;;
19519;SDS011;9904;52.246;20.898;2023-12-22T10:14:31;7.17;;;1.33;;
19519;SDS011;9904;52.246;20.898;2023-12-22T10:17:04;7.50;;;1.63;;
19519;SDS011;9904;52.246;20.898;2023-12-22T10:19:31;4.20;;;1.40;;
19519;SDS011;9904;52.246;20.898;2023-12-22T10:21:58;6.63;;;1.97;;
19519;SDS011;9904;52.246;20.898;2023-12-22T10:24:37;8.73;;;1.60;;
19519;SDS011;9904;52.246;20.898;2023-12-22T10:27:14;3.87;;;1.50;;
19519;SDS011;9904;52.246;20.898;2023-12-22T10:29:48;8.83;;;1.17;;
19519;SDS011;9904;52.246;20.898;2023-12-22T10:32:16;5.20;;;1.23;;
19519;SDS011;9904;52.246;20.898;2023-12-22T10:34:43;6.63;;;1.20;;
19519;SDS011;9904;52.246;20.898;2023-12-22T10:37:10;4.97;;;1.33;;
19519;SDS011;9904;52.246;20.898;2023-12-22T10:39:36;10.63;;;1.70;;
19519;SDS011;9904;52.246;20.898;2023-12-22T10:42:06;5.37;;;1.07;;
19519;SDS011;9904;52.246;20.898;2023-12-22T10:44:33;1.77;;;0.80;;
19519;SDS011;9904;52.246;20.898;2023-12-22T10:47:00;7.30;;;0.77;;
19519;SDS011;9904;52.246;20.898;2023-12-22T10:49:27;2.37;;;1.03;;
19519;SDS011;9904;52.246;20.898;2023-12-22T10:51:54;4.47;;;0.80;;
19519;SDS011;9904;52.246;20.898;2023-12-22T10:54:22;4.50;;;1.23;;
19519;SDS011;9904;52.246;20.898;2023-12-22T10:56:49;5.23;;;1.33;;
19519;SDS011;9904;52.246;20.898;2023-12-22T10:59:18;9.03;;;2.20;;
19519;SDS011;9904;52.246;20.898;2023-12-22T11:01:50;6.67;;;1.67;;
19519;SDS011;9904;52.246;20.898;2023-12-22T11:04:18;12.57;;;2.47;;
19519;SDS011;9904;52.246;20.898;2023-12-22T11:06:47;8.57;;;2.73;;
19519;SDS011;9904;52.246;20.898;2023-12-22T11:09:16;12.80;;;2.70;;
19519;SDS011;9904;52.246;20.898;2023-12-22T11:11:43;16.43;;;2.27;;
19519;SDS011;9904;52.246;20.898;2023-12-22T11:14:11;13.00;;;1.97;;
19519;SDS011;9904;52.246;20.898;2023-12-22T11:16:40;11.27;;;2.03;;
19519;SDS011;9904;52.246;20.898;2023-12-22T11:19:14;8.23;;;2.13;;
19519;SDS011;9904;52.246;20.898;2023-12-22T11:21:41;13.93;;;2.17;;
19519;SDS011;9904;52.246;20.898;2023-12-22T11:24:09;22.53;;;2.67;;
19519;SDS011;9904;52.246;20.898;2023-12-22T11:26:41;13.07;;;3.23;;
19519;SDS011;9904;52.246;20.898;2023-12-22T11:29:09;14.20;;;2.80;;
19519;SDS011;9904;52.246;20.898;2023-12-22T11:31:37;12.27;;;2.77;;
19519;SDS011;9904;52.246;20.898;2023-12-22T11:34:04;18.40;;;3.20;;
19519;SDS011;9904;52.246;20.898;2023-12-22T11:36:40;19.43;;;3.33;;
19519;SDS011;9904;52.246;20.898;2023-12-22T11:39:09;14.40;;;3.07;;
19519;SDS011;9904;52.246;20.898;2023-12-22T11:41:36;11.67;;;3.03;;
19519;SDS011;9904;52.246;20.898;2023-12-22T11:44:04;16.33;;;2.83;;
19519;SDS011;9904;52.246;20.898;2023-12-22T11:46:32;19.20;;;3.33;;
19519;SDS011;9904;52.246;20.898;2023-12-22T11:49:00;12.37;;;2.37;;
19519;SDS011;9904;52.246;20.898;2023-12-22T11:51:31;12.10;;;2.17;;
19519;SDS011;9904;52.246;20.898;2023-12-22T11:54:01;13.17;;;2.30;;
19519;SDS011;9904;52.246;20.898;2023-12-22T11:56:28;10.07;;;2.50;;
19519;SDS011;9904;52.246;20.898;2023-12-22T11:58:55;8.57;;;2.07;;
19519;SDS011;9904;52.246;20.898;2023-12-22T12:01:25;6.97;;;2.10;;
19519;SDS011;9904;52.246;20.898;2023-12-22T12:03:59;11.73;;;2.30;;
19519;SDS011;9904;52.246;20.898;2023-12-22T12:06:30;10.07;;;2.50;;
19519;SDS011;9904;52.246;20.898;2023-12-22T12:09:00;7.57;;;2.20;;
19519;SDS011;9904;52.246;20.898;2023-12-22T12:14:15;8.23;;;2.17;;
19519;SDS011;9904;52.246;20.898;2023-12-22T12:16:47;9.77;;;2.77;;
19519;SDS011;9904;52.246;20.898;2023-12-22T12:19:14;9.70;;;2.93;;
19519;SDS011;9904;52.246;20.898;2023-12-22T12:21:41;7.03;;;2.00;;
19519;SDS011;9904;52.246;20.898;2023-12-22T12:24:08;8.67;;;1.73;;
19519;SDS011;9904;52.246;20.898;2023-12-22T12:26:36;8.07;;;1.67;;
19519;SDS011;9904;52.246;20.898;2023-12-22T12:29:03;7.53;;;2.37;;
19519;SDS011;9904;52.246;20.898;2023-12-22T12:31:37;6.77;;;1.60;;
19519;SDS011;9904;52.246;20.898;2023-12-22T12:34:10;9.77;;;1.93;;
19519;SDS011;9904;52.246;20.898;2023-12-22T12:36:38;8.37;;;2.00;;
19519;SDS011;9904;52.246;20.898;2023-12-22T12:39:08;7.30;;;1.90;;
19519;SDS011;9904;52.246;20.898;2023-12-22T12:41:40;8.73;;;1.83;;
19519;SDS011;9904;52.246;20.898;2023-12-22T12:44:07;6.17;;;1.50;;
19519;SDS011;9904;52.246;20.898;2023-12-22T12:46:35;10.50;;;3.00;;
19519;SDS011;9904;52.246;20.898;2023-12-22T12:49:04;12.93;;;2.20;;
19519;SDS011;9904;52.246;20.898;2023-12-22T12:51:37;12.47;;;2.60;;
19519;SDS011;9904;52.246;20.898;2023-12-22T12:54:06;10.80;;;1.93;;
19519;SDS011;9904;52.246;20.898;2023-12-22T12:56:39;11.80;;;2.50;;
19519;SDS011;9904;52.246;20.898;2023-12-22T12:59:07;16.63;;;3.10;;
19519;SDS011;9904;52.246;20.898;2023-12-22T13:01:42;13.43;;;2.37;;
19519;SDS011;9904;52.246;20.898;2023-12-22T13:04:13;7.70;;;2.60;;
19519;SDS011;9904;52.246;20.898;2023-12-22T13:06:47;6.67;;;2.47;;
19519;SDS011;9904;52.246;20.898;2023-12-22T13:09:18;10.43;;;2.43;;
19519;SDS011;9904;52.246;20.898;2023-12-22T13:11:46;7.37;;;2.77;;
19519;SDS011;9904;52.246;20.898;2023-12-22T13:14:23;6.93;;;3.00;;
19519;SDS011;9904;52.246;20.898;2023-12-22T13:16:55;11.27;;;3.93;;
19519;SDS011;9904;52.246;20.898;2023-12-22T13:19:24;9.63;;;3.77;;
19519;SDS011;9904;52.246;20.898;2023-12-22T13:21:53;13.27;;;4.60;;
19519;SDS011;9904;52.246;20.898;2023-12-22T13:24:21;10.63;;;4.27;;
19519;SDS011;9904;52.246;20.898;2023-12-22T13:26:58;13.67;;;4.50;;
19519;SDS011;9904;52.246;20.898;2023-12-22T13:29:27;9.23;;;4.03;;
19519;SDS011;9904;52.246;20.898;2023-12-22T13:31:54;11.07;;;3.87;;
19519;SDS011;9904;52.246;20.898;2023-12-22T13:34:23;8.77;;;2.83;;
19519;SDS011;9904;52.246;20.898;2023-12-22T13:36:51;11.27;;;3.67;;
19519;SDS011;9904;52.246;20.898;2023-12-22T13:39:18;10.13;;;3.40;;
19519;SDS011;9904;52.246;20.898;2023-12-22T13:41:45;14.50;;;3.77;;
19519;SDS011;9904;52.246;20.898;2023-12-22T13:44:13;13.73;;;5.10;;
19519;SDS011;9904;52.246;20.898;2023-12-22T13:46:40;10.87;;;3.80;;
19519;SDS011;9904;52.246;20.898;2023-12-22T13:49:09;11.83;;;3.57;;
19519;SDS011;9904;52.246;20.898;2023-12-22T13:51:40;21.10;;;4.00;;
19519;SDS011;9904;52.246;20.898;2023-12-22T13:54:09;17.60;;;4.43;;
19519;SDS011;9904;52.246;20.898;2023-12-22T13:56:36;10.27;;;3.53;;
19519;SDS011;9904;52.246;20.898;2023-12-22T13:59:06;14.43;;;4.00;;
19519;SDS011;9904;52.246;20.898;2023-12-22T14:01:33;21.10;;;4.63;;
19519;SDS011;9904;52.246;20.898;2023-12-22T14:04:00;11.80;;;4.20;;
19519;SDS011;9904;52.246;20.898;2023-12-22T14:06:28;11.87;;;4.17;;
19519;SDS011;9904;52.246;20.898;2023-12-22T14:08:56;19.33;;;4.37;;
19519;SDS011;9904;52.246;20.898;2023-12-22T14:11:22;18.33;;;4.23;;
19519;SDS011;9904;52.246;20.898;2023-12-22T14:13:49;16.93;;;4.23;;
19519;SDS011;9904;52.246;20.898;2023-12-22T14:16:16;14.53;;;4.50;;
19519;SDS011;9904;52.246;20.898;2023-12-22T14:18:42;21.30;;;4.50;;
19519;SDS011;9904;52.246;20.898;2023-12-22T14:21:09;12.00;;;3.60;;
19519;SDS011;9904;52.246;20.898;2023-12-22T14:23:36;20.13;;;4.53;;
19519;SDS011;9904;52.246;20.898;2023-12-22T14:26:02;12.40;;;4.67;;
19519;SDS011;9904;52.246;20.898;2023-12-22T14:28:29;20.33;;;4.33;;
19519;SDS011;9904;52.246;20.898;2023-12-22T14:30:56;15.60;;;4.40;;
19519;SDS011;9904;52.246;20.898;2023-12-22T14:33:23;13.27;;;3.90;;
19519;SDS011;9904;52.246;20.898;2023-12-22T14:35:50;14.50;;;4.30;;
19519;SDS011;9904;52.246;20.898;2023-12-22T14:38:16;20.27;;;5.07;;
19519;SDS011;9904;52.246;20.898;2023-12-22T14:40:43;17.23;;;4.90;;
19519;SDS011;9904;52.246;20.898;2023-12-22T14:43:10;20.87;;;5.53;;
19519;SDS011;9904;52.246;20.898;2023-12-22T14:45:37;21.33;;;5.27;;
19519;SDS011;9904;52.246;20.898;2023-12-22T14:48:03;15.90;;;4.80;;